Time;durP1;ratioP1;P1;durP2;ratioP2;P2;SDS_P1;SDS_P2;PMS_P1;PMS_P2;Temp;Humidity;BMP_temperature;BMP_pressure;BME280_temperature;BME280_humidity;BME280_pressure;Samples;Min_cycle;Max_cycle;Signal;HPM_P1;HPM_P2
2022/11/26 00:01:20;;;;;;;25.67;5.65;;;4.90;99.90;;;;;;5011421;28;20045;-77
2022/11/26 00:03:51;;;;;;;20.55;5.05;;;4.90;99.90;;;;;;5011190;28;20054;-78
2022/11/26 00:06:58;;;;;;;17.20;4.97;;;4.90;99.90;;;;;;5011155;28;20053;-78
2022/11/26 00:09:24;;;;;;;23.38;5.18;;;4.90;99.90;;;;;;4970015;28;20067;-78
2022/11/26 00:11:49;;;;;;;20.25;5.70;;;4.90;99.90;;;;;;4970051;28;20344;-78
2022/11/26 00:14:18;;;;;;;21.10;6.13;;;4.90;99.90;;;;;;4969712;28;20170;-78
2022/11/26 00:16:44;;;;;;;29.23;6.05;;;4.90;99.90;;;;;;4969021;28;20062;-77
2022/11/26 00:19:10;;;;;;;24.00;5.97;;;4.90;99.90;;;;;;4970125;28;20050;-78
2022/11/26 00:21:39;;;;;;;19.73;5.30;;;4.80;99.90;;;;;;4970002;28;20139;-78
2022/11/26 00:24:14;;;;;;;22.23;5.75;;;4.90;99.90;;;;;;4937614;28;20059;-78
2022/11/26 00:26:39;;;;;;;26.65;5.47;;;4.80;99.90;;;;;;4968873;28;20063;-78
2022/11/26 00:29:09;;;;;;;23.23;6.05;;;4.80;99.90;;;;;;4969603;28;20054;-77
2022/11/26 00:31:34;;;;;;;19.90;5.72;;;4.80;99.90;;;;;;4969638;28;20063;-78
2022/11/26 00:34:00;;;;;;;27.00;5.88;;;4.80;99.90;;;;;;4953383;28;20047;-77
2022/11/26 00:36:31;;;;;;;25.20;5.82;;;5.40;99.90;;;;;;4969663;28;20062;-78
2022/11/26 00:39:08;;;;;;;24.13;5.68;;;4.80;99.90;;;;;;4969455;28;20057;-79
2022/11/26 00:41:37;;;;;;;26.80;6.60;;;4.80;99.90;;;;;;4969492;28;20419;-77
2022/11/26 00:44:03;;;;;;;24.55;5.93;;;4.80;99.90;;;;;;5001529;28;20413;-76
2022/11/26 00:46:29;;;;;;;23.90;6.53;;;4.80;99.90;;;;;;5011518;28;20038;-77
2022/11/26 00:48:55;;;;;;;34.00;6.68;;;4.80;99.90;;;;;;5010696;28;20400;-77
2022/11/26 00:51:24;;;;;;;21.88;5.80;;;4.80;99.90;;;;;;5009834;28;20049;-78
2022/11/26 00:53:51;;;;;;;19.75;5.82;;;4.70;99.90;;;;;;5010946;28;20100;-78
2022/11/26 00:56:20;;;;;;;17.95;5.72;;;4.70;99.90;;;;;;5010712;28;20050;-77
2022/11/26 00:58:47;;;;;;;26.40;5.57;;;4.70;99.90;;;;;;5010573;28;20046;-76
2022/11/26 01:01:19;;;;;;;20.15;5.95;;;4.70;99.90;;;;;;5010632;28;20045;-77
2022/11/26 01:03:44;;;;;;;29.35;5.82;;;4.70;99.90;;;;;;5008996;28;20050;-77
2022/11/26 01:06:17;;;;;;;22.00;6.60;;;4.70;99.90;;;;;;4993405;28;20107;-78
2022/11/26 01:08:44;;;;;;;22.35;5.95;;;4.80;99.90;;;;;;5009422;28;20115;-78
2022/11/26 01:11:19;;;;;;;25.08;6.50;;;5.40;99.90;;;;;;5009872;28;20088;-77
2022/11/26 01:13:45;;;;;;;;;;;4.70;99.90;;;;;;5011107;28;20061;-78
2022/11/26 01:16:18;;;;;;;19.45;5.57;;;4.70;99.90;;;;;;5009674;28;19941;-77
2022/11/26 01:18:52;;;;;;;27.23;6.18;;;4.70;99.90;;;;;;5010172;28;20058;-77
2022/11/26 01:21:19;;;;;;;18.80;6.05;;;4.60;99.90;;;;;;4991004;28;20050;-76
2022/11/26 01:23:45;;;;;;;23.40;6.18;;;4.60;99.90;;;;;;4990756;28;20054;-77
2022/11/26 01:26:20;;;;;;;23.30;7.57;;;5.40;99.90;;;;;;4990288;28;20394;-77
2022/11/26 01:28:46;;;;;;;25.23;6.05;;;4.60;99.90;;;;;;5007836;28;20046;-77
2022/11/26 01:31:17;;;;;;;29.20;7.00;;;4.60;99.90;;;;;;5010056;28;20046;-77
2022/11/26 01:33:49;;;;;;;19.95;6.10;;;4.60;99.90;;;;;;5009746;28;20042;-77
2022/11/26 01:36:29;;;;;;;24.77;6.40;;;4.70;99.90;;;;;;4992082;28;20049;-78
2022/11/26 01:39:00;;;;;;;17.50;5.63;;;4.70;99.90;;;;;;5009713;28;20054;-77
2022/11/26 01:41:32;;;;;;;19.25;6.55;;;4.70;99.90;;;;;;5009976;28;20073;-77
2022/11/26 01:44:12;;;;;;;19.27;5.90;;;4.60;99.90;;;;;;5009896;28;20088;-76
2022/11/26 01:46:38;;;;;;;24.85;6.75;;;4.60;99.90;;;;;;5017089;23;20057;-76
2022/11/26 01:49:25;;;;;;;24.40;5.68;;;4.60;99.90;;;;;;5008725;28;20077;-77
2022/11/26 01:52:21;;;;;;;26.42;6.28;;;4.60;99.90;;;;;;4991596;28;20152;-77
2022/11/26 01:54:47;;;;;;;23.10;5.75;;;4.60;99.90;;;;;;5009688;28;20045;-77
2022/11/26 01:57:17;;;;;;;21.98;6.72;;;4.60;99.90;;;;;;5009600;28;20409;-76
2022/11/26 01:59:49;;;;;;;29.60;6.43;;;4.60;99.90;;;;;;5009247;28;20042;-77
2022/11/26 02:02:15;;;;;;;20.17;6.28;;;4.60;99.90;;;;;;5009769;28;20121;-77
2022/11/26 02:04:53;;;;;;;24.85;6.45;;;4.60;99.90;;;;;;5009618;28;20103;-77
2022/11/26 02:07:19;;;;;;;32.45;6.93;;;4.60;99.90;;;;;;5007935;28;20104;-76
2022/11/26 02:09:46;;;;;;;23.13;6.57;;;4.30;99.90;;;;;;5008070;28;20042;-77
2022/11/26 02:12:12;;;;;;;20.05;6.60;;;4.60;99.90;;;;;;5009411;28;20108;-78
2022/11/26 02:14:43;;;;;;;24.45;6.22;;;4.60;99.90;;;;;;5009561;28;20046;-77
2022/11/26 02:17:12;;;;;;;26.30;7.07;;;4.60;99.90;;;;;;5008098;28;20120;-76
2022/11/26 02:19:52;;;;;;;29.95;6.53;;;4.70;99.90;;;;;;5009414;28;20053;-77
2022/11/26 02:22:39;;;;;;;26.98;6.78;;;4.60;99.90;;;;;;4991410;28;20085;-77
2022/11/26 02:25:14;;;;;;;20.63;6.65;;;4.60;99.90;;;;;;4992002;28;20050;-77
2022/11/26 02:28:15;;;;;;;20.67;6.32;;;4.60;99.90;;;;;;4992701;28;20083;-77
2022/11/26 02:30:46;;;;;;;24.05;7.28;;;4.60;99.90;;;;;;4975277;28;20078;-78
2022/11/26 02:33:23;;;;;;;35.33;7.22;;;4.60;99.90;;;;;;4972356;28;20120;-77
2022/11/26 02:35:57;;;;;;;36.10;7.38;;;4.70;99.90;;;;;;4971754;28;20145;-77
2022/11/26 02:38:25;;;;;;;31.67;7.93;;;4.70;99.90;;;;;;4972262;28;20494;-77
2022/11/26 02:40:51;;;;;;;23.95;7.30;;;5.30;99.90;;;;;;4976646;28;20118;-77
2022/11/26 02:43:19;;;;;;;16.63;6.30;;;4.70;99.90;;;;;;4991436;28;20196;-77
2022/11/26 02:45:49;;;;;;;22.63;7.35;;;4.70;99.90;;;;;;4991225;28;20544;-78
2022/11/26 02:48:46;;;;;;;25.50;7.05;;;4.70;99.90;;;;;;4991015;28;20046;-77
2022/11/26 02:51:16;;;;;;;23.17;6.05;;;4.60;99.90;;;;;;4990610;28;20090;-77
2022/11/26 02:53:44;;;;;;;32.25;6.65;;;4.60;99.90;;;;;;4990907;28;20133;-77
2022/11/26 02:56:14;;;;;;;18.90;6.95;;;4.60;99.90;;;;;;4991059;28;20430;-78
2022/11/26 02:58:40;;;;;;;21.25;6.32;;;4.50;99.90;;;;;;4991103;28;20133;-78
2022/11/26 03:01:11;;;;;;;25.27;6.60;;;4.50;99.90;;;;;;4990263;28;20130;-77
2022/11/26 03:03:43;;;;;;;16.63;5.95;;;4.50;99.90;;;;;;4990536;28;20404;-78
2022/11/26 03:06:11;;;;;;;25.08;6.63;;;4.50;99.90;;;;;;4990454;28;20043;-77
2022/11/26 03:08:37;;;;;;;23.30;6.78;;;4.40;99.90;;;;;;5006872;28;20054;-77
2022/11/26 03:11:04;;;;;;;20.52;6.25;;;4.40;99.90;;;;;;5012422;28;20112;-77
2022/11/26 03:13:30;;;;;;;20.83;6.57;;;4.50;99.90;;;;;;5012784;28;20037;-77
2022/11/26 03:15:56;;;;;;;22.27;6.95;;;4.40;99.90;;;;;;5012823;28;20132;-78
2022/11/26 03:18:21;;;;;;;32.35;7.32;;;4.40;99.90;;;;;;5012547;28;20464;-78
2022/11/26 03:20:47;;;;;;;27.55;7.30;;;4.40;99.90;;;;;;5010912;28;20062;-77
2022/11/26 03:23:13;;;;;;;18.20;6.72;;;4.40;99.90;;;;;;5011906;28;20045;-77
2022/11/26 03:25:38;;;;;;;24.58;7.72;;;4.40;99.90;;;;;;5010275;28;20133;-77
2022/11/26 03:28:10;;;;;;;19.92;6.18;;;4.40;99.90;;;;;;5012049;28;20049;-77
2022/11/26 03:30:36;;;;;;;22.50;6.53;;;4.30;99.90;;;;;;5009372;28;20046;-77
2022/11/26 03:33:02;;;;;;;23.55;7.13;;;5.10;99.90;;;;;;5011674;28;20101;-77
2022/11/26 03:35:27;;;;;;;20.55;6.45;;;4.30;99.90;;;;;;5010131;28;20038;-78
2022/11/26 03:37:53;;;;;;;20.83;6.75;;;4.30;99.90;;;;;;5012049;28;20421;-77
2022/11/26 03:40:19;;;;;;;29.10;6.85;;;4.40;99.90;;;;;;5011528;28;20515;-76
2022/11/26 03:42:45;;;;;;;28.60;8.02;;;4.30;99.90;;;;;;5012070;28;20042;-76
2022/11/26 03:45:13;;;;;;;25.83;7.25;;;4.40;99.90;;;;;;5009849;28;20433;-76
2022/11/26 03:47:39;;;;;;;21.98;7.72;;;4.30;99.90;;;;;;5011825;28;20089;-77
2022/11/26 03:50:05;;;;;;;29.88;7.40;;;4.30;99.90;;;;;;5010820;28;20104;-75
2022/11/26 03:52:31;;;;;;;20.17;7.20;;;4.30;99.90;;;;;;5012197;28;20049;-76
2022/11/26 03:54:57;;;;;;;22.85;6.97;;;4.40;99.90;;;;;;5010395;28;20068;-77
2022/11/26 03:57:22;;;;;;;22.48;8.85;;;5.20;99.90;;;;;;5011772;28;20042;-77
2022/11/26 03:59:48;;;;;;;25.60;7.88;;;4.40;99.90;;;;;;4994311;28;20108;-75
2022/11/26 04:02:14;;;;;;;24.52;7.60;;;4.40;99.90;;;;;;5010310;28;20409;-76
2022/11/26 04:04:39;;;;;;;23.83;7.82;;;4.40;99.90;;;;;;5011667;28;20066;-76
2022/11/26 04:07:05;;;;;;;28.73;7.10;;;4.40;99.90;;;;;;5011558;28;20115;-77
2022/11/26 04:09:31;;;;;;;23.23;7.43;;;4.40;99.90;;;;;;5010496;28;20054;-76
2022/11/26 04:11:56;;;;;;;25.00;7.60;;;4.40;99.90;;;;;;5009911;28;20061;-77
2022/11/26 04:14:23;;;;;;;29.67;7.38;;;4.40;99.90;;;;;;5010288;28;20045;-76
2022/11/26 04:17:01;;;;;;;21.27;6.63;;;4.40;99.90;;;;;;5011214;28;20050;-76
2022/11/26 04:19:32;;;;;;;21.63;6.53;;;4.40;99.90;;;;;;5011395;28;20649;-77
2022/11/26 04:21:58;;;;;;;22.15;7.32;;;4.40;99.90;;;;;;5010676;28;20042;-77
2022/11/26 04:24:24;;;;;;;27.52;8.13;;;4.40;99.90;;;;;;4995976;28;20049;-76
2022/11/26 04:26:49;;;;;;;25.77;7.47;;;4.40;99.90;;;;;;4993416;28;20046;-77
2022/11/26 04:29:15;;;;;;;20.67;7.28;;;4.30;99.90;;;;;;5011195;28;20069;-76
2022/11/26 04:31:40;;;;;;;26.17;8.35;;;4.80;99.90;;;;;;5011137;28;20125;-77
2022/11/26 04:34:06;;;;;;;22.95;7.80;;;4.80;99.90;;;;;;5009668;28;20385;-76
2022/11/26 04:36:32;;;;;;;25.52;8.32;;;4.30;99.90;;;;;;5010956;28;20042;-76
2022/11/26 04:38:58;;;;;;;22.88;7.97;;;4.30;99.90;;;;;;4993668;28;20057;-77
2022/11/26 04:41:24;;;;;;;20.92;7.60;;;4.30;99.90;;;;;;5011125;28;20417;-76
2022/11/26 04:43:49;;;;;;;17.23;7.93;;;4.30;99.90;;;;;;5009955;28;20053;-77
2022/11/26 04:46:15;;;;;;;32.90;7.47;;;4.30;99.90;;;;;;5009461;28;20452;-76
2022/11/26 04:48:43;;;;;;;30.25;8.60;;;4.30;99.90;;;;;;5010208;28;20061;-77
2022/11/26 04:51:09;;;;;;;20.65;7.30;;;4.30;99.90;;;;;;5009617;28;20512;-76
2022/11/26 04:53:38;;;;;;;28.33;7.55;;;4.30;99.90;;;;;;5010202;28;20155;-77
2022/11/26 04:56:04;;;;;;;22.05;7.03;;;4.30;99.90;;;;;;4992774;28;20045;-77
2022/11/26 04:58:29;;;;;;;25.67;7.80;;;4.20;99.90;;;;;;5010591;28;20611;-77
2022/11/26 05:00:55;;;;;;;23.45;6.63;;;4.20;99.90;;;;;;5010746;28;20045;-76
2022/11/26 05:03:21;;;;;;;24.33;7.85;;;4.20;99.90;;;;;;5010325;28;20069;-76
2022/11/26 05:05:46;;;;;;;21.98;7.00;;;4.20;99.90;;;;;;5009075;28;20136;-76
2022/11/26 05:08:18;;;;;;;22.65;7.32;;;4.20;99.90;;;;;;5008677;28;20127;-76
2022/11/26 05:10:43;;;;;;;26.40;7.60;;;4.20;99.90;;;;;;5010300;28;20049;-76
2022/11/26 05:13:09;;;;;;;18.80;6.97;;;4.20;99.90;;;;;;5010145;28;20401;-77
2022/11/26 05:15:35;;;;;;;24.98;8.63;;;4.20;99.90;;;;;;5010597;28;20038;-77
2022/11/26 05:18:01;;;;;;;21.80;7.45;;;4.20;99.90;;;;;;5010398;28;20046;-77
2022/11/26 05:20:26;;;;;;;17.83;6.93;;;4.20;99.90;;;;;;5010366;28;20096;-77
2022/11/26 05:22:52;;;;;;;22.30;8.23;;;4.10;99.90;;;;;;5010107;28;20057;-77
2022/11/26 05:25:17;;;;;;;23.58;7.38;;;4.20;99.90;;;;;;5009049;28;20045;-77
2022/11/26 05:27:43;;;;;;;25.27;7.75;;;4.20;99.90;;;;;;5010039;28;20050;-76
2022/11/26 05:30:09;;;;;;;26.52;8.43;;;4.20;99.90;;;;;;5009752;28;20049;-76
2022/11/26 05:32:35;;;;;;;25.02;8.27;;;4.20;99.90;;;;;;5008438;28;20045;-76
2022/11/26 05:35:01;;;;;;;28.77;9.27;;;4.20;99.90;;;;;;5009803;28;20444;-77
2022/11/26 05:37:26;;;;;;;31.50;8.00;;;4.20;99.90;;;;;;5009756;28;20393;-76
2022/11/26 05:39:52;;;;;;;24.13;8.32;;;4.20;99.90;;;;;;5024704;28;20132;-75
2022/11/26 05:42:17;;;;;;;26.80;8.15;;;4.20;99.90;;;;;;5007906;28;20393;-76
2022/11/26 05:44:43;;;;;;;22.73;8.07;;;4.20;99.90;;;;;;5008208;28;20397;-75
2022/11/26 05:47:09;;;;;;;23.85;8.15;;;4.20;99.90;;;;;;5009709;28;20166;-76
2022/11/26 05:49:34;;;;;;;17.80;7.80;;;4.20;99.90;;;;;;5008029;28;20066;-76
2022/11/26 05:52:00;;;;;;;19.65;7.88;;;4.10;99.90;;;;;;5009672;28;20048;-76
2022/11/26 05:54:25;;;;;;;27.90;8.15;;;4.10;99.90;;;;;;5008355;28;20540;-76
2022/11/26 05:56:51;;;;;;;29.20;9.50;;;4.10;99.90;;;;;;5009670;28;20078;-76
2022/11/26 05:59:17;;;;;;;24.15;8.73;;;4.10;99.90;;;;;;5007829;28;20766;-77
2022/11/26 06:01:42;;;;;;;19.75;8.27;;;4.10;99.90;;;;;;5008104;28;20484;-76
2022/11/26 06:04:08;;;;;;;26.05;8.32;;;4.10;99.90;;;;;;5009520;28;20048;-77
2022/11/26 06:06:33;;;;;;;22.20;7.75;;;4.10;99.90;;;;;;5009479;28;20053;-77
2022/11/26 06:08:59;;;;;;;26.30;8.68;;;4.10;99.90;;;;;;5007809;28;20038;-76
2022/11/26 06:11:25;;;;;;;28.65;9.27;;;4.10;99.90;;;;;;5009206;28;20416;-77
2022/11/26 06:13:50;;;;;;;24.98;9.32;;;4.10;99.90;;;;;;5009410;28;20050;-77
2022/11/26 06:16:17;;;;;;;27.08;9.02;;;4.10;99.90;;;;;;5009682;28;20049;-77
2022/11/26 06:18:46;;;;;;;25.20;8.50;;;4.10;99.90;;;;;;5007952;28;20046;-77
2022/11/26 06:21:12;;;;;;;23.77;8.60;;;4.10;99.90;;;;;;5007573;28;20151;-77
2022/11/26 06:23:37;;;;;;;24.67;8.55;;;4.00;99.90;;;;;;5009202;28;20555;-77
2022/11/26 06:26:09;;;;;;;36.90;8.63;;;4.90;99.90;;;;;;5009551;28;20072;-76
2022/11/26 06:28:35;;;;;;;32.22;10.60;;;4.10;99.90;;;;;;5008825;28;20079;-76
2022/11/26 06:31:00;;;;;;;25.20;9.65;;;4.00;99.90;;;;;;4991265;28;20046;-76
2022/11/26 06:33:26;;;;;;;20.63;9.65;;;4.60;99.90;;;;;;4991474;28;20054;-77
2022/11/26 06:35:52;;;;;;;23.02;9.10;;;4.00;99.90;;;;;;5009377;28;20053;-76
2022/11/26 06:38:17;;;;;;;26.00;9.60;;;4.00;99.90;;;;;;5009459;28;20468;-77
2022/11/26 06:40:43;;;;;;;28.33;9.95;;;4.00;99.90;;;;;;5009163;28;20103;-77
2022/11/26 06:43:08;;;;;;;24.23;9.23;;;4.10;99.90;;;;;;5009127;28;20045;-76
2022/11/26 06:45:34;;;;;;;21.15;8.75;;;4.40;99.90;;;;;;5009490;28;20057;-77
2022/11/26 06:48:00;;;;;;;27.17;9.02;;;4.10;99.90;;;;;;5008955;28;20053;-77
2022/11/26 06:50:25;;;;;;;28.33;9.48;;;4.00;99.90;;;;;;5009478;28;20053;-77
2022/11/26 06:52:52;;;;;;;24.90;9.18;;;4.00;99.90;;;;;;5009455;28;20042;-77
2022/11/26 06:55:18;;;;;;;35.47;9.68;;;4.00;99.90;;;;;;5009209;28;20121;-77
2022/11/26 06:57:44;;;;;;;41.35;10.85;;;4.00;99.90;;;;;;5009243;28;20053;-77
2022/11/26 07:00:10;;;;;;;33.70;9.60;;;4.40;99.90;;;;;;5009018;28;20038;-78
2022/11/26 07:02:37;;;;;;;32.25;10.25;;;4.00;99.90;;;;;;5008761;28;20125;-76
2022/11/26 07:05:03;;;;;;;25.00;11.13;;;4.00;99.90;;;;;;5009636;28;20046;-76
2022/11/26 07:07:44;;;;;;;25.35;9.30;;;4.00;99.90;;;;;;4991236;28;20058;-77
2022/11/26 07:10:13;;;;;;;22.98;9.75;;;5.10;99.90;;;;;;5008610;28;20111;-77
2022/11/26 07:12:38;;;;;;;27.20;9.60;;;4.00;99.90;;;;;;5008973;28;20045;-77
2022/11/26 07:15:04;;;;;;;27.17;9.85;;;4.00;99.90;;;;;;5011681;28;20046;-77
2022/11/26 07:17:33;;;;;;;27.95;9.95;;;4.00;99.90;;;;;;5012859;28;20053;-77
2022/11/26 07:19:59;;;;;;;31.45;10.43;;;4.00;99.90;;;;;;4995013;28;20050;-77
2022/11/26 07:22:28;;;;;;;27.77;9.55;;;4.00;99.90;;;;;;5011046;28;20057;-77
2022/11/26 07:24:53;;;;;;;31.50;10.18;;;4.30;99.90;;;;;;5012035;28;20485;-76
2022/11/26 07:27:19;;;;;;;32.58;10.90;;;4.10;99.90;;;;;;5012450;28;20054;-76
2022/11/26 07:29:44;;;;;;;29.20;10.45;;;4.10;99.90;;;;;;5012466;28;20045;-77
2022/11/26 07:32:10;;;;;;;24.45;10.50;;;4.10;99.90;;;;;;5012356;28;20489;-76
2022/11/26 07:34:36;;;;;;;26.95;10.15;;;4.20;99.90;;;;;;5012021;28;20049;-76
2022/11/26 07:37:02;;;;;;;41.78;11.75;;;4.20;99.90;;;;;;5012159;28;20074;-77
2022/11/26 07:39:27;;;;;;;27.25;11.45;;;4.20;99.90;;;;;;5012106;28;20057;-77
2022/11/26 07:41:56;;;;;;;26.95;11.57;;;4.70;99.90;;;;;;5010075;28;20471;-76
2022/11/26 07:44:22;;;;;;;37.60;12.13;;;4.30;99.90;;;;;;5012012;28;20084;-77
2022/11/26 07:46:47;;;;;;;35.20;12.23;;;4.30;99.90;;;;;;5012020;28;20076;-77
2022/11/26 07:49:13;;;;;;;39.33;12.10;;;4.40;99.90;;;;;;5012434;28;20046;-77
2022/11/26 07:51:41;;;;;;;29.48;12.15;;;4.30;99.90;;;;;;5011790;28;20053;-77
2022/11/26 07:54:08;;;;;;;33.50;12.13;;;4.10;99.90;;;;;;5011075;28;20484;-77
2022/11/26 07:56:34;;;;;;;34.05;12.23;;;4.40;99.90;;;;;;5011412;28;20121;-77
2022/11/26 07:59:00;;;;;;;35.92;12.10;;;4.40;99.90;;;;;;5009347;28;20081;-77
2022/11/26 08:01:28;;;;;;;32.78;12.50;;;4.50;99.90;;;;;;4999858;28;20038;-78
2022/11/26 08:03:55;;;;;;;35.65;13.25;;;4.50;99.90;;;;;;4993230;28;20046;-77
2022/11/26 08:06:23;;;;;;;35.67;12.38;;;4.50;99.90;;;;;;4992591;28;20042;-77
2022/11/26 08:08:49;;;;;;;31.75;12.05;;;4.60;99.90;;;;;;4992420;28;20058;-77
2022/11/26 08:11:18;;;;;;;30.00;12.13;;;4.60;99.90;;;;;;4992754;28;20049;-77
2022/11/26 08:13:48;;;;;;;28.75;11.98;;;4.60;99.90;;;;;;4991450;28;20061;-77
2022/11/26 08:16:17;;;;;;;33.50;12.10;;;4.70;99.90;;;;;;5007972;28;20095;-78
2022/11/26 08:18:43;;;;;;;40.13;13.27;;;5.00;99.90;;;;;;4992371;28;20046;-77
2022/11/26 08:21:09;;;;;;;36.67;12.07;;;4.80;99.90;;;;;;4991931;28;20409;-78
2022/11/26 08:23:35;;;;;;;26.40;12.27;;;4.80;99.90;;;;;;4993422;28;20082;-77
2022/11/26 08:26:09;;;;;;;35.10;11.77;;;4.80;99.90;;;;;;4991545;28;20082;-76
2022/11/26 08:28:35;;;;;;;34.20;12.10;;;4.80;99.90;;;;;;4992212;28;20038;-78
2022/11/26 08:31:06;;;;;;;28.08;11.52;;;4.90;99.90;;;;;;4992133;28;20104;-78
2022/11/26 08:33:33;;;;;;;39.92;12.07;;;5.00;99.90;;;;;;4993484;28;20034;-78
2022/11/26 08:35:59;;;;;;;27.73;12.43;;;5.00;99.90;;;;;;4992255;28;20454;-78
2022/11/26 08:38:27;;;;;;;38.70;12.63;;;5.10;99.90;;;;;;4974406;28;20129;-78
2022/11/26 08:40:53;;;;;;;36.90;12.23;;;5.20;99.90;;;;;;4991356;28;20046;-79
2022/11/26 08:43:22;;;;;;;38.55;11.88;;;5.20;99.90;;;;;;4995613;28;20545;-79
2022/11/26 08:45:58;;;;;;;38.00;11.35;;;5.20;99.90;;;;;;5011631;28;20754;-79
2022/11/26 08:48:26;;;;;;;39.20;11.90;;;5.20;99.90;;;;;;5010967;28;20468;-77
2022/11/26 08:51:06;;;;;;;36.78;11.88;;;5.30;99.90;;;;;;5011293;28;20041;-78
2022/11/26 08:53:33;;;;;;;32.88;11.32;;;5.30;99.90;;;;;;5009371;28;20050;-78
2022/11/26 08:56:08;;;;;;;37.50;12.55;;;5.40;99.90;;;;;;5009346;28;20048;-77
2022/11/26 08:58:36;;;;;;;42.28;11.48;;;5.40;99.90;;;;;;5011140;28;20085;-77
2022/11/26 09:01:13;;;;;;;35.63;12.60;;;5.40;99.90;;;;;;5010739;28;20034;-77
2022/11/26 09:03:38;;;;;;;26.52;11.68;;;5.50;99.90;;;;;;5010924;28;20128;-77
2022/11/26 09:06:06;;;;;;;28.48;11.23;;;5.50;99.90;;;;;;5009878;28;20557;-78
2022/11/26 09:11:00;;;;;;;31.48;10.43;;;5.60;99.90;;;;;;5052476;23;20081;-76
2022/11/26 09:13:26;;;;;;;45.22;11.82;;;5.60;99.90;;;;;;4970152;28;20058;-77
2022/11/26 09:15:51;;;;;;;31.95;11.02;;;5.70;99.90;;;;;;4970658;28;20114;-77
2022/11/26 09:18:17;;;;;;;31.45;10.20;;;5.80;99.90;;;;;;5005257;28;20125;-78
2022/11/26 09:20:42;;;;;;;33.38;11.55;;;5.80;99.90;;;;;;4989845;28;20057;-76
2022/11/26 09:23:08;;;;;;;28.13;11.23;;;5.90;99.90;;;;;;4991184;28;20148;-76
2022/11/26 09:25:38;;;;;;;25.45;9.90;;;5.90;99.90;;;;;;4991394;28;20050;-78
2022/11/26 09:28:04;;;;;;;32.10;10.52;;;6.00;99.90;;;;;;4990996;28;20089;-79
2022/11/26 09:30:30;;;;;;;46.35;9.48;;;6.00;99.90;;;;;;4991286;28;20081;-79
2022/11/26 09:32:56;;;;;;;33.10;11.23;;;6.10;99.90;;;;;;4989927;28;20126;-79
2022/11/26 09:35:22;;;;;;;26.73;9.88;;;6.20;99.90;;;;;;4985634;28;20042;-76
2022/11/26 09:37:47;;;;;;;27.75;10.77;;;6.30;99.90;;;;;;4991126;28;20113;-79
2022/11/26 09:40:17;;;;;;;29.50;10.63;;;6.30;99.90;;;;;;5006672;28;20081;-78
2022/11/26 09:42:59;;;;;;;34.17;10.80;;;6.40;99.90;;;;;;4971865;28;20050;-78
2022/11/26 09:45:42;;;;;;;30.73;10.80;;;6.50;99.90;;;;;;4972257;28;20069;-79
2022/11/26 09:48:20;;;;;;;29.08;10.40;;;6.50;99.90;;;;;;4970288;28;20132;-78
2022/11/26 09:50:50;;;;;;;32.83;10.43;;;6.60;99.90;;;;;;4976920;28;20054;-79
2022/11/26 09:53:21;;;;;;;31.63;10.85;;;6.60;99.90;;;;;;4988908;28;20057;-79
2022/11/26 09:55:52;;;;;;;28.40;10.15;;;6.90;99.90;;;;;;4989187;28;20050;-79
2022/11/26 09:58:39;;;;;;;33.53;11.57;;;6.70;99.90;;;;;;4990403;28;20057;-79
2022/11/26 10:01:06;;;;;;;31.25;10.68;;;6.80;99.90;;;;;;4990522;28;20058;-79
2022/11/26 10:03:38;;;;;;;38.67;11.27;;;6.80;99.90;;;;;;4989126;28;20061;-78
2022/11/26 10:06:22;;;;;;;29.02;11.15;;;6.90;99.90;;;;;;4990481;28;20050;-78
2022/11/26 10:09:35;;;;;;;32.90;10.88;;;7.00;99.90;;;;;;4990194;28;20046;-78
2022/11/26 10:12:38;;;;;;;33.63;11.02;;;7.10;99.90;;;;;;4990641;28;20054;-78
2022/11/26 10:15:22;;;;;;;29.33;10.75;;;7.10;99.90;;;;;;4990480;28;20046;-79
2022/11/26 10:18:04;;;;;;;24.70;10.75;;;7.10;99.90;;;;;;4990735;28;20053;-79
2022/11/26 10:21:01;;;;;;;40.55;11.02;;;7.10;99.90;;;;;;4989194;28;20519;-79
2022/11/26 10:23:56;;;;;;;27.17;10.45;;;7.10;99.90;;;;;;4990543;28;20052;-79
2022/11/26 10:26:37;;;;;;;35.42;11.15;;;7.20;99.90;;;;;;4989341;28;20112;-78
2022/11/26 10:29:15;;;;;;;34.50;11.63;;;7.20;99.90;;;;;;4990019;28;20042;-79
2022/11/26 10:31:43;;;;;;;34.78;11.75;;;7.30;99.90;;;;;;4990085;28;20128;-78
2022/11/26 10:34:25;;;;;;;38.30;11.98;;;7.30;99.90;;;;;;4990110;28;20085;-79
2022/11/26 10:36:51;;;;;;;37.88;13.02;;;7.30;99.90;;;;;;4989203;28;20196;-78
2022/11/26 10:39:19;;;;;;;37.60;13.88;;;7.40;99.90;;;;;;4990203;28;20774;-80
2022/11/26 10:41:46;;;;;;;33.53;13.07;;;7.40;99.90;;;;;;4988969;28;20058;-80
2022/11/26 10:44:28;;;;;;;35.17;12.32;;;7.40;99.90;;;;;;4977325;28;20748;-79
2022/11/26 10:46:54;;;;;;;36.33;12.48;;;7.50;99.90;;;;;;4969941;28;20469;-79
2022/11/26 10:49:27;;;;;;;37.42;12.23;;;7.50;99.90;;;;;;4972920;28;20031;-79
2022/11/26 10:51:57;;;;;;;32.97;11.88;;;7.50;99.90;;;;;;4973379;28;20042;-78
2022/11/26 10:54:33;;;;;;;30.35;11.93;;;8.00;99.90;;;;;;4973310;28;20054;-79
2022/11/26 10:57:08;;;;;;;30.33;11.50;;;7.60;99.90;;;;;;4974451;28;20039;-78
2022/11/26 10:59:43;;;;;;;37.47;12.25;;;7.60;99.90;;;;;;4972969;28;20461;-79
2022/11/26 11:02:39;;;;;;;36.60;12.35;;;7.60;99.90;;;;;;4958086;28;20409;-79
2022/11/26 11:05:07;;;;;;;34.47;12.48;;;7.60;99.90;;;;;;4989890;28;20527;-80
2022/11/26 11:07:34;;;;;;;34.22;11.75;;;7.70;99.90;;;;;;4993771;28;20058;-75
2022/11/26 11:10:08;;;;;;;27.65;11.68;;;7.70;99.90;;;;;;4993288;28;20514;-75
2022/11/26 11:13:02;;;;;;;34.80;12.27;;;7.70;99.90;;;;;;4973960;28;20047;-76
2022/11/26 11:15:34;;;;;;;31.05;12.23;;;7.80;99.90;;;;;;4972180;28;20061;-75
2022/11/26 11:18:16;;;;;;;26.25;11.55;;;7.80;99.90;;;;;;4978481;28;20054;-75
2022/11/26 11:20:56;;;;;;;33.22;12.98;;;7.80;99.90;;;;;;4993421;28;20061;-75
2022/11/26 11:23:26;;;;;;;34.92;12.60;;;7.90;99.90;;;;;;4993607;28;20465;-75
2022/11/26 11:26:04;;;;;;;32.28;12.88;;;7.90;99.90;;;;;;4993254;28;20109;-76
2022/11/26 11:28:32;;;;;;;27.40;12.32;;;8.30;99.90;;;;;;4991346;28;20057;-75
2022/11/26 11:31:03;;;;;;;33.75;12.93;;;8.00;99.90;;;;;;4992402;28;20042;-76
2022/11/26 11:33:29;;;;;;;37.63;13.55;;;8.00;99.90;;;;;;4993152;28;20046;-76
2022/11/26 11:35:59;;;;;;;35.45;13.60;;;8.00;99.90;;;;;;4993174;28;20125;-75
2022/11/26 11:38:28;;;;;;;38.35;13.15;;;8.00;99.90;;;;;;4992998;28;20065;-75
2022/11/26 11:40:54;;;;;;;34.38;12.63;;;8.10;99.90;;;;;;4991181;28;20063;-75
2022/11/26 11:43:22;;;;;;;35.60;12.88;;;8.10;99.90;;;;;;4989502;28;20050;-75
2022/11/26 11:46:12;;;;;;;30.27;12.90;;;8.10;99.90;;;;;;4992394;28;20083;-76
2022/11/26 11:48:49;;;;;;;34.38;12.38;;;8.20;99.90;;;;;;5008050;28;20093;-75
2022/11/26 11:51:27;;;;;;;39.33;11.82;;;8.20;99.90;;;;;;4989762;28;20057;-77
2022/11/26 11:54:14;;;;;;;35.60;11.60;;;8.20;99.90;;;;;;4991200;28;20046;-76
2022/11/26 11:56:48;;;;;;;32.35;11.38;;;8.20;99.90;;;;;;5008032;28;20054;-75
2022/11/26 11:59:36;;;;;;;32.40;11.60;;;8.30;99.90;;;;;;4992415;28;20054;-76
2022/11/26 12:02:24;;;;;;;26.50;11.57;;;8.30;99.90;;;;;;4982939;28;20091;-87
2022/11/26 12:05:05;;;;;;;33.53;11.05;;;8.30;99.90;;;;;;4971705;28;20053;-75
2022/11/26 12:07:37;;;;;;;34.03;11.85;;;8.30;99.90;;;;;;4972989;28;20450;-74
2022/11/26 12:10:26;;;;;;;35.75;12.38;;;8.30;99.90;;;;;;4972843;28;20097;-77
2022/11/26 12:12:56;;;;;;;28.25;10.52;;;8.40;99.90;;;;;;4980518;28;20054;-78
2022/11/26 12:15:29;;;;;;;36.90;11.82;;;8.30;99.90;;;;;;4972640;28;20055;-78
2022/11/26 12:18:15;;;;;;;44.70;12.13;;;8.40;99.90;;;;;;4987770;28;20058;-77
2022/11/26 12:20:49;;;;;;;30.08;10.93;;;8.40;99.90;;;;;;4987832;28;20098;-77
2022/11/26 12:23:26;;;;;;;35.85;12.25;;;8.40;99.90;;;;;;4977458;28;20054;-78
2022/11/26 12:26:12;;;;;;;31.75;10.80;;;8.40;99.90;;;;;;4972330;28;20057;-79
2022/11/26 12:29:01;;;;;;;38.83;12.02;;;8.40;99.90;;;;;;4972458;28;20062;-78
2022/11/26 12:31:37;;;;;;;33.42;11.57;;;8.50;99.90;;;;;;4971011;28;20069;-78
2022/11/26 12:34:17;;;;;;;31.35;11.55;;;8.50;99.90;;;;;;4975149;28;20066;-77
2022/11/26 12:37:02;;;;;;;32.85;11.75;;;8.50;99.90;;;;;;4971393;28;20054;-78
2022/11/26 12:39:44;;;;;;;33.50;10.93;;;8.50;99.90;;;;;;4972586;28;20058;-78
2022/11/26 12:42:29;;;;;;;33.85;11.65;;;8.50;99.90;;;;;;4998079;28;20149;-78
2022/11/26 12:45:01;;;;;;;33.33;11.07;;;8.50;99.90;;;;;;4990130;28;20062;-79
2022/11/26 12:47:41;;;;;;;34.50;11.52;;;8.60;99.90;;;;;;4986947;28;20065;-79
2022/11/26 12:50:09;;;;;;;36.72;12.00;;;8.60;99.90;;;;;;4991818;28;20049;-80
2022/11/26 12:52:56;;;;;;;31.08;12.05;;;8.60;99.90;;;;;;4990580;28;20053;-79
2022/11/26 12:55:24;;;;;;;33.15;11.25;;;8.70;99.90;;;;;;4987993;28;20185;-80
2022/11/26 12:57:53;;;;;;;38.75;11.48;;;8.70;99.90;;;;;;4988950;28;20520;-80
2022/11/26 13:00:35;;;;;;;33.30;11.52;;;9.30;99.90;;;;;;4972958;28;20493;-78
2022/11/26 13:03:02;;;;;;;32.70;11.20;;;8.80;99.90;;;;;;4970629;28;20124;-79